Time;durP1;ratioP1;P1;durP2;ratioP2;P2;SDS_P1;SDS_P2;PMS_P1;PMS_P2;Temp;Humidity;BMP_temperature;BMP_pressure;BME280_temperature;BME280_humidity;BME280_pressure;Samples;Min_cycle;Max_cycle;Signal;HPM_P1;HPM_P2
2023/04/10 03:01:53;;;;;;;62.92;36.60;;;7.30;99.90;;;;;;5326842;23;20054;-76
2023/04/10 03:04:19;;;;;;;68.00;36.90;;;7.30;99.90;;;;;;4969105;28;20073;-78
2023/04/10 03:06:45;;;;;;;62.97;36.72;;;7.30;99.90;;;;;;4963017;28;20118;-80
2023/04/10 03:09:11;;;;;;;62.55;36.08;;;7.30;99.90;;;;;;4958733;28;20046;-77
2023/04/10 03:11:36;;;;;;;65.57;35.63;;;7.30;99.90;;;;;;4976736;28;20501;-79
2023/04/10 03:14:03;;;;;;;62.15;35.92;;;7.30;99.90;;;;;;4958978;28;20045;-78
2023/04/10 03:16:28;;;;;;;60.58;36.30;;;7.30;99.90;;;;;;4943103;28;20439;-78
2023/04/10 03:18:55;;;;;;;60.33;35.78;;;7.30;99.90;;;;;;4976851;28;20050;-78
2023/04/10 03:21:21;;;;;;;59.05;36.67;;;7.30;99.90;;;;;;4959015;28;20054;-78
2023/04/10 03:23:46;;;;;;;59.75;35.58;;;7.20;99.90;;;;;;4976315;28;20401;-80
2023/04/10 03:26:12;;;;;;;60.47;35.88;;;7.20;99.90;;;;;;4943379;28;20043;-77
2023/04/10 03:28:38;;;;;;;61.95;35.35;;;7.20;99.90;;;;;;4958630;28;20047;-80
2023/04/10 03:31:04;;;;;;;61.38;37.05;;;7.20;99.90;;;;;;4958869;28;20065;-81
2023/04/10 03:33:30;;;;;;;59.38;35.00;;;7.20;99.90;;;;;;4959079;28;20053;-80
2023/04/10 03:35:56;;;;;;;58.78;35.67;;;7.10;99.90;;;;;;4958642;28;20482;-79
2023/04/10 03:38:22;;;;;;;58.97;34.42;;;7.10;99.90;;;;;;4976294;28;20438;-81
2023/04/10 03:40:48;;;;;;;61.55;36.85;;;7.20;99.90;;;;;;4958625;28;20043;-79
2023/04/10 03:43:14;;;;;;;55.80;34.03;;;7.20;99.90;;;;;;4958970;28;20379;-79
2023/04/10 03:45:39;;;;;;;56.28;34.35;;;7.20;99.90;;;;;;4975788;28;20038;-78
2023/04/10 03:48:05;;;;;;;56.63;34.53;;;7.20;99.90;;;;;;4958661;28;20126;-80
2023/04/10 03:50:31;;;;;;;57.35;34.13;;;7.20;99.90;;;;;;4942842;28;20078;-79
2023/04/10 03:52:56;;;;;;;59.83;34.33;;;7.30;99.90;;;;;;4975821;28;20039;-80
2023/04/10 03:55:22;;;;;;;59.58;35.88;;;7.30;99.90;;;;;;4975851;28;20034;-79
2023/04/10 03:57:48;;;;;;;61.15;34.47;;;7.30;99.90;;;;;;4959071;28;20039;-78
2023/04/10 04:00:15;;;;;;;54.10;33.53;;;7.30;99.90;;;;;;4975426;28;20034;-79
2023/04/10 04:02:41;;;;;;;57.58;33.95;;;7.30;99.90;;;;;;4958433;28;20047;-80
2023/04/10 04:05:07;;;;;;;57.00;34.35;;;7.40;99.90;;;;;;4958327;28;20418;-80
2023/04/10 04:07:33;;;;;;;55.08;33.40;;;7.40;99.90;;;;;;4958177;28;20050;-79
2023/04/10 04:09:59;;;;;;;57.10;32.58;;;7.40;99.90;;;;;;4975799;28;20133;-78
2023/04/10 04:12:25;;;;;;;55.47;33.10;;;7.40;99.90;;;;;;4958380;28;20553;-78
2023/04/10 04:14:51;;;;;;;54.72;33.20;;;7.40;99.90;;;;;;4958064;28;20039;-81
2023/04/10 04:17:16;;;;;;;54.80;32.95;;;7.40;99.90;;;;;;4976000;28;20043;-80
2023/04/10 04:19:42;;;;;;;55.38;32.65;;;7.40;99.90;;;;;;4941885;28;20039;-80
2023/04/10 04:22:08;;;;;;;54.17;33.75;;;7.40;99.90;;;;;;4957690;28;20039;-81
2023/04/10 04:24:33;;;;;;;48.58;30.65;;;7.40;99.90;;;;;;4957912;28;20142;-78
2023/04/10 04:27:00;;;;;;;52.28;31.45;;;7.40;99.90;;;;;;4957787;28;20074;-79
2023/04/10 04:29:25;;;;;;;52.05;30.92;;;7.40;99.90;;;;;;4957522;28;20494;-80
2023/04/10 04:31:51;;;;;;;54.33;31.30;;;7.40;99.90;;;;;;4957501;28;20043;-77
2023/04/10 04:34:17;;;;;;;51.80;29.45;;;7.40;99.90;;;;;;4957313;28;20119;-79
2023/04/10 04:36:42;;;;;;;48.65;30.23;;;7.40;99.90;;;;;;4957353;28;20438;-78
2023/04/10 04:39:08;;;;;;;50.33;29.70;;;7.40;99.90;;;;;;4957440;28;20086;-78
2023/04/10 04:41:34;;;;;;;51.35;30.15;;;7.40;99.90;;;;;;4974967;28;20405;-79
2023/04/10 04:44:01;;;;;;;47.38;28.80;;;7.40;99.90;;;;;;4957340;28;20101;-78
2023/04/10 04:46:27;;;;;;;52.72;29.10;;;7.40;99.90;;;;;;4974819;28;20047;-80
2023/04/10 04:48:52;;;;;;;51.17;29.25;;;7.40;99.90;;;;;;4957563;28;20125;-78
2023/04/10 04:51:19;;;;;;;46.65;26.95;;;7.40;99.90;;;;;;4957525;28;20463;-79
2023/04/10 04:53:45;;;;;;;46.63;27.45;;;7.40;99.90;;;;;;4957417;28;20078;-76
2023/04/10 04:56:10;;;;;;;47.30;28.20;;;7.40;99.90;;;;;;4941883;28;20043;-77
2023/04/10 04:58:36;;;;;;;49.30;27.60;;;7.30;99.90;;;;;;4941066;28;20078;-79
2023/04/10 05:01:02;;;;;;;43.13;26.00;;;7.40;99.90;;;;;;4957156;28;20043;-79
2023/04/10 05:03:27;;;;;;;44.90;26.08;;;7.40;99.90;;;;;;4957506;28;20046;-77
2023/04/10 05:05:54;;;;;;;44.72;25.88;;;7.40;99.90;;;;;;4975944;28;20117;-76
2023/04/10 05:08:19;;;;;;;43.15;25.80;;;7.40;99.90;;;;;;4968176;28;20047;-76
2023/04/10 05:10:45;;;;;;;44.60;27.08;;;7.40;99.90;;;;;;4965526;28;20046;-79
2023/04/10 05:13:11;;;;;;;43.10;26.08;;;7.40;99.90;;;;;;4975102;28;20038;-80
2023/04/10 05:15:37;;;;;;;44.83;25.58;;;7.40;99.90;;;;;;4957729;28;20406;-79
2023/04/10 05:18:02;;;;;;;40.97;24.42;;;7.40;99.90;;;;;;4957570;28;20145;-77
2023/04/10 05:20:28;;;;;;;43.75;25.42;;;7.40;99.90;;;;;;4957020;28;20070;-82
2023/04/10 05:22:54;;;;;;;40.80;24.10;;;7.40;99.90;;;;;;4974667;28;20046;-81
2023/04/10 05:25:19;;;;;;;41.17;25.05;;;7.40;99.90;;;;;;4957153;28;20042;-80
2023/04/10 05:27:45;;;;;;;38.35;23.65;;;7.40;99.90;;;;;;4956992;28;20388;-79
2023/04/10 05:30:11;;;;;;;40.45;23.98;;;7.40;99.90;;;;;;4957064;28;20034;-79
2023/04/10 05:32:37;;;;;;;38.22;23.50;;;7.40;99.90;;;;;;4959015;28;20042;-80
2023/04/10 05:35:03;;;;;;;39.15;22.38;;;7.40;99.90;;;;;;4978297;28;20049;-79
2023/04/10 05:37:28;;;;;;;41.03;23.52;;;7.50;99.90;;;;;;4960966;28;20038;-80
2023/04/10 05:39:54;;;;;;;36.90;21.95;;;7.50;99.90;;;;;;4961247;28;20093;-81
2023/04/10 05:42:19;;;;;;;37.65;22.20;;;7.50;99.90;;;;;;4960699;28;20423;-79
2023/04/10 05:44:45;;;;;;;36.38;21.90;;;7.50;99.90;;;;;;4960529;28;20114;-79
2023/04/10 05:47:10;;;;;;;34.58;21.60;;;7.60;99.90;;;;;;4960632;28;20050;-79
2023/04/10 05:49:36;;;;;;;35.78;20.48;;;7.60;99.90;;;;;;4960473;28;20058;-79
2023/04/10 05:52:02;;;;;;;33.78;20.48;;;7.60;99.90;;;;;;4960860;28;20046;-77
2023/04/10 05:54:27;;;;;;;36.28;21.15;;;7.70;99.90;;;;;;4978449;28;20077;-79
2023/04/10 05:56:53;;;;;;;34.72;21.17;;;7.70;99.90;;;;;;4960385;28;20034;-80
2023/04/10 05:59:19;;;;;;;32.08;19.48;;;7.70;99.90;;;;;;4961167;28;20046;-78
2023/04/10 06:01:46;;;;;;;32.38;18.98;;;7.70;99.90;;;;;;4977614;28;20046;-79
2023/04/10 06:04:11;;;;;;;33.72;19.90;;;7.80;99.90;;;;;;4977813;28;20070;-78
2023/04/10 06:06:38;;;;;;;32.00;19.38;;;7.80;99.90;;;;;;4977553;28;20098;-78
2023/04/10 06:09:03;;;;;;;32.65;18.73;;;7.90;99.90;;;;;;4960029;28;20043;-78
2023/04/10 06:11:29;;;;;;;41.25;19.33;;;7.90;99.90;;;;;;4960135;28;20044;-80
2023/04/10 06:13:55;;;;;;;31.05;18.65;;;8.00;99.90;;;;;;4977694;28;20089;-80
2023/04/10 06:16:20;;;;;;;34.42;19.38;;;8.00;99.90;;;;;;4960189;28;20135;-79
2023/04/10 06:18:47;;;;;;;33.88;19.20;;;8.10;99.90;;;;;;4944266;28;20042;-82
2023/04/10 06:21:13;;;;;;;31.17;18.08;;;8.10;99.90;;;;;;4960157;28;20046;-80
2023/04/10 06:23:39;;;;;;;30.52;18.70;;;8.20;99.90;;;;;;4959773;28;20126;-80
2023/04/10 06:26:05;;;;;;;30.20;17.38;;;8.20;99.90;;;;;;4959855;28;20058;-77
2023/04/10 06:28:31;;;;;;;31.45;18.98;;;8.30;99.90;;;;;;4977169;28;20097;-76
2023/04/10 06:30:57;;;;;;;31.30;18.50;;;8.30;99.90;;;;;;4977022;28;20426;-76
2023/04/10 06:33:22;;;;;;;32.15;17.00;;;8.40;99.90;;;;;;4959800;28;20049;-80
2023/04/10 06:35:49;;;;;;;29.67;17.70;;;8.50;99.90;;;;;;4959777;28;20050;-80
2023/04/10 06:38:15;;;;;;;26.77;16.85;;;8.50;99.90;;;;;;4959939;28;20058;-78
2023/04/10 06:40:40;;;;;;;28.50;17.30;;;8.60;99.90;;;;;;4959687;28;20224;-78
2023/04/10 06:43:06;;;;;;;30.77;17.50;;;8.70;99.90;;;;;;4959252;28;20383;-81
2023/04/10 06:45:32;;;;;;;29.83;17.23;;;8.70;99.90;;;;;;4976781;28;20039;-79
2023/04/10 06:47:57;;;;;;;29.05;16.92;;;8.80;99.90;;;;;;4960147;28;20173;-78
2023/04/10 06:50:23;;;;;;;32.97;17.65;;;8.90;99.90;;;;;;4967697;28;20054;-77
2023/04/10 06:52:49;;;;;;;26.90;16.25;;;8.90;99.90;;;;;;4984810;28;20546;-77
2023/04/10 06:55:14;;;;;;;29.90;16.80;;;8.90;99.90;;;;;;4961308;28;20049;-76
2023/04/10 06:57:40;;;;;;;27.92;15.63;;;9.00;99.90;;;;;;4959411;28;20043;-76
2023/04/10 07:00:08;;;;;;;27.90;17.15;;;9.10;99.90;;;;;;4959458;28;20047;-78
2023/04/10 07:02:34;;;;;;;28.30;16.60;;;9.20;99.90;;;;;;4959333;28;20097;-78
2023/04/10 07:05:00;;;;;;;27.55;15.70;;;9.20;99.90;;;;;;4959572;28;20046;-80
2023/04/10 07:07:25;;;;;;;27.25;15.52;;;9.30;99.90;;;;;;4943473;28;20439;-78
2023/04/10 07:09:51;;;;;;;27.70;16.27;;;9.40;99.90;;;;;;4959601;28;20055;-81
2023/04/10 07:12:17;;;;;;;24.80;14.93;;;9.40;99.90;;;;;;4959211;28;20483;-81
2023/04/10 07:14:42;;;;;;;25.50;15.45;;;9.50;99.90;;;;;;4959141;28;20043;-77
2023/04/10 07:17:08;;;;;;;26.63;16.00;;;9.50;99.90;;;;;;4959244;28;20046;-79
2023/04/10 07:19:34;;;;;;;24.48;15.30;;;9.60;99.90;;;;;;4958893;28;20506;-81
2023/04/10 07:22:00;;;;;;;26.20;15.77;;;9.70;99.90;;;;;;4943251;28;20086;-77
2023/04/10 07:24:26;;;;;;;25.40;15.65;;;9.70;99.90;;;;;;4976333;28;20045;-77
2023/04/10 07:26:52;;;;;;;26.08;15.93;;;9.90;99.90;;;;;;4959112;28;20154;-80
2023/04/10 07:29:19;;;;;;;27.10;16.42;;;10.00;99.90;;;;;;4976162;28;20042;-76
2023/04/10 07:31:44;;;;;;;23.80;14.70;;;10.10;99.90;;;;;;4958824;28;20181;-79
2023/04/10 07:34:11;;;;;;;24.02;15.80;;;10.20;99.90;;;;;;4958889;28;20042;-78
2023/04/10 07:36:37;;;;;;;23.67;14.85;;;10.30;99.90;;;;;;4958948;28;20403;-80
2023/04/10 07:39:03;;;;;;;23.77;14.57;;;10.50;99.90;;;;;;4958945;28;20082;-78
2023/04/10 07:41:28;;;;;;;24.02;15.05;;;10.60;99.90;;;;;;4958293;28;20486;-78
2023/04/10 07:43:54;;;;;;;24.38;14.77;;;10.70;99.90;;;;;;4976077;28;20145;-77
2023/04/10 07:46:20;;;;;;;24.83;15.52;;;10.80;99.90;;;;;;4976247;28;20043;-80
2023/04/10 07:48:48;;;;;;;23.00;14.38;;;10.90;99.90;;;;;;4958487;28;20405;-78
2023/04/10 07:51:14;;;;;;;24.35;13.95;;;11.00;99.90;;;;;;4958318;28;20090;-79
2023/04/10 07:53:40;;;;;;;21.40;14.13;;;11.00;99.90;;;;;;4959201;28;20043;-78
2023/04/10 07:56:07;;;;;;;26.45;15.48;;;11.10;99.90;;;;;;4958290;28;20096;-79
2023/04/10 07:58:32;;;;;;;23.15;14.43;;;11.20;99.90;;;;;;4958651;28;20055;-80
2023/04/10 08:00:58;;;;;;;22.92;14.45;;;11.30;99.90;;;;;;4975132;28;20049;-76
2023/04/10 08:03:24;;;;;;;21.98;14.00;;;11.30;99.90;;;;;;4958256;28;20085;-78
2023/04/10 08:05:50;;;;;;;22.75;13.90;;;11.40;99.90;;;;;;4958042;28;20074;-78
2023/04/10 08:08:16;;;;;;;24.55;14.35;;;11.50;99.90;;;;;;4958061;28;20055;-79
2023/04/10 08:10:41;;;;;;;24.70;14.07;;;11.50;99.90;;;;;;4957994;28;20055;-76
2023/04/10 08:13:07;;;;;;;21.52;12.93;;;11.60;99.90;;;;;;4957892;28;20379;-80
2023/04/10 08:15:33;;;;;;;19.67;13.25;;;11.70;99.90;;;;;;4975491;28;20039;-78
2023/04/10 08:17:59;;;;;;;23.45;13.23;;;11.70;99.90;;;;;;4942530;28;20475;-79
2023/04/10 08:20:25;;;;;;;21.52;12.98;;;11.80;99.90;;;;;;4959023;28;20102;-77
2023/04/10 08:22:50;;;;;;;21.48;12.88;;;11.90;99.90;;;;;;4975258;28;20031;-76
2023/04/10 08:25:16;;;;;;;19.60;13.30;;;12.00;99.90;;;;;;4975234;28;20039;-80
2023/04/10 08:27:42;;;;;;;22.67;12.15;;;12.10;99.90;;;;;;4974759;28;20038;-81
2023/04/10 08:30:08;;;;;;;17.80;11.73;;;12.20;99.90;;;;;;4957824;28;20039;-80
2023/04/10 08:32:34;;;;;;;16.73;11.50;;;12.40;99.90;;;;;;4942227;28;20042;-78
2023/04/10 08:35:00;;;;;;;16.23;10.45;;;12.50;99.90;;;;;;4975589;28;20070;-82
2023/04/10 08:37:26;;;;;;;18.45;10.88;;;12.60;99.90;;;;;;4957612;28;20144;-78
2023/04/10 08:39:52;;;;;;;17.55;11.38;;;12.60;99.90;;;;;;4941816;28;20045;-81
2023/04/10 08:42:17;;;;;;;17.10;11.35;;;12.90;99.90;;;;;;4975108;28;20371;-77
2023/04/10 08:44:44;;;;;;;15.30;10.10;;;13.10;99.90;;;;;;4975211;28;20058;-80
2023/04/10 08:47:12;;;;;;;16.65;10.70;;;13.30;99.90;;;;;;4975307;28;20042;-80
2023/04/10 08:49:46;;;;;;;15.27;10.13;;;13.70;99.90;;;;;;4975287;28;20054;-82
2023/04/10 08:52:20;;;;;;;15.53;10.40;;;14.00;99.90;;;;;;4975243;28;20085;-78
2023/04/10 08:54:49;;;;;;;15.40;10.60;;;14.10;99.90;;;;;;4957800;28;20498;-77
2023/04/10 08:57:19;;;;;;;15.32;9.38;;;14.30;99.90;;;;;;4957400;28;20089;-77
2023/04/10 08:59:49;;;;;;;14.50;9.60;;;14.40;99.90;;;;;;4941328;28;20051;-77
2023/04/10 09:02:14;;;;;;;13.63;9.70;;;14.20;99.90;;;;;;4957278;28;20069;-79
2023/04/10 09:04:53;;;;;;;15.68;9.55;;;14.30;99.90;;;;;;4974697;28;20184;-79
2023/04/10 09:07:18;;;;;;;15.60;9.70;;;14.30;99.90;;;;;;4974515;28;20054;-77
2023/04/10 09:09:44;;;;;;;14.95;9.20;;;14.30;99.90;;;;;;4957212;28;20383;-77
2023/04/10 09:12:12;;;;;;;16.65;8.85;;;14.30;99.90;;;;;;4941712;28;20039;-79
2023/04/10 09:14:40;;;;;;;17.75;10.57;;;14.40;99.90;;;;;;4957535;28;20395;-78
2023/04/10 09:17:17;;;;;;;14.38;9.20;;;14.30;99.90;;;;;;4957693;28;20126;-77
2023/04/10 09:19:46;;;;;;;15.27;10.10;;;14.30;99.90;;;;;;4957565;28;20043;-77
2023/04/10 09:22:12;;;;;;;13.93;8.90;;;14.40;99.90;;;;;;4941890;28;20368;-78
2023/04/10 09:24:39;;;;;;;15.18;9.05;;;14.60;99.90;;;;;;4974799;28;20050;-77
2023/04/10 09:27:06;;;;;;;13.68;9.18;;;14.50;99.90;;;;;;4974673;28;20054;-78
2023/04/10 09:29:48;;;;;;;14.70;9.85;;;14.30;99.90;;;;;;4956924;28;20075;-78
2023/04/10 09:32:35;;;;;;;14.95;9.95;;;14.20;99.90;;;;;;4975013;28;20046;-80
2023/04/10 09:35:01;;;;;;;15.50;9.65;;;14.10;99.90;;;;;;4974207;28;20128;-77
2023/04/10 09:37:31;;;;;;;16.25;9.82;;;14.20;99.90;;;;;;4957148;28;20042;-77
2023/04/10 09:39:57;;;;;;;13.88;9.57;;;14.30;99.90;;;;;;4974297;28;20384;-76
2023/04/10 09:42:34;;;;;;;16.77;10.35;;;14.40;99.90;;;;;;4957237;28;20046;-81
2023/04/10 09:45:00;;;;;;;14.30;9.35;;;14.50;99.90;;;;;;4941457;28;20039;-78
2023/04/10 09:47:27;;;;;;;15.52;9.77;;;14.60;99.90;;;;;;4974564;28;20039;-77
2023/04/10 09:49:59;;;;;;;14.32;9.85;;;14.70;99.90;;;;;;4957291;28;20386;-78
2023/04/10 09:52:28;;;;;;;13.40;8.73;;;14.70;99.90;;;;;;4974090;28;20041;-77
2023/04/10 09:54:56;;;;;;;15.05;9.63;;;14.70;99.90;;;;;;4973882;28;20523;-78
2023/04/10 09:57:23;;;;;;;13.57;8.85;;;14.60;99.90;;;;;;4974601;28;20062;-77
2023/04/10 09:59:51;;;;;;;13.40;9.10;;;14.50;99.90;;;;;;4973954;28;20114;-77
2023/04/10 10:02:22;;;;;;;14.40;9.10;;;14.50;99.90;;;;;;4956677;28;20051;-80
2023/04/10 10:04:49;;;;;;;15.55;9.38;;;14.50;99.90;;;;;;4956861;28;20058;-79
2023/04/10 10:07:20;;;;;;;14.05;8.85;;;14.50;99.90;;;;;;4974292;28;20506;-79
2023/04/10 10:09:46;;;;;;;14.35;9.55;;;14.50;99.90;;;;;;4956582;28;20083;-79
2023/04/10 10:12:16;;;;;;;13.25;9.07;;;14.40;99.90;;;;;;4957006;28;20047;-79
2023/04/10 10:15:15;;;;;;;13.88;9.32;;;14.40;99.90;;;;;;4957857;28;20129;-79
2023/04/10 10:18:10;;;;;;;12.30;8.85;;;14.30;99.90;;;;;;4953776;28;20078;-79
2023/04/10 10:20:38;;;;;;;14.70;8.68;;;14.30;99.90;;;;;;4960762;28;20117;-78
2023/04/10 10:23:05;;;;;;;14.23;8.57;;;14.20;99.90;;;;;;4980339;28;20034;-78
2023/04/10 10:25:33;;;;;;;13.00;8.05;;;14.20;99.90;;;;;;4967781;28;20091;-76
2023/04/10 10:28:02;;;;;;;12.18;8.43;;;14.20;99.90;;;;;;4967615;28;20169;-80
2023/04/10 10:30:33;;;;;;;13.13;7.93;;;14.20;99.90;;;;;;4965383;28;20057;-80
2023/04/10 10:33:01;;;;;;;13.70;7.80;;;14.20;99.90;;;;;;4964651;28;20046;-76
2023/04/10 10:35:29;;;;;;;12.32;8.02;;;14.20;99.90;;;;;;4981552;28;20039;-81
2023/04/10 10:37:57;;;;;;;12.65;8.32;;;14.20;99.90;;;;;;4960725;28;20061;-80
2023/04/10 10:40:41;;;;;;;12.90;8.40;;;14.20;99.90;;;;;;4977635;28;20478;-77
2023/04/10 10:43:34;;;;;;;13.45;8.23;;;14.30;99.90;;;;;;4959899;28;20486;-77
2023/04/10 10:46:08;;;;;;;11.10;7.32;;;14.40;99.90;;;;;;4943863;28;20047;-79
2023/04/10 10:48:33;;;;;;;12.52;7.10;;;14.40;99.90;;;;;;4959629;28;20097;-78
2023/04/10 10:51:00;;;;;;;12.85;7.68;;;14.40;99.90;;;;;;4977077;28;20448;-79
2023/04/10 10:53:43;;;;;;;14.73;8.32;;;14.50;99.90;;;;;;4960683;28;20043;-80
2023/04/10 10:56:17;;;;;;;13.63;8.43;;;14.50;99.90;;;;;;4960996;28;20046;-79
2023/04/10 10:58:51;;;;;;;14.77;7.35;;;14.60;99.90;;;;;;4960038;28;20078;-79
2023/04/10 11:01:18;;;;;;;15.63;8.20;;;14.70;99.90;;;;;;4959604;28;20097;-80
2023/04/10 11:03:45;;;;;;;12.13;7.65;;;14.80;99.90;;;;;;4977142;28;20521;-78
2023/04/10 11:06:19;;;;;;;12.15;8.20;;;14.80;99.90;;;;;;4959669;28;20347;-78
2023/04/10 11:08:51;;;;;;;11.75;7.40;;;14.90;99.90;;;;;;4959147;28;20074;-78
2023/04/10 11:11:24;;;;;;;11.00;7.35;;;14.90;99.90;;;;;;4959026;28;20367;-76
2023/04/10 11:13:55;;;;;;;11.25;7.75;;;14.90;99.90;;;;;;4958972;28;20137;-78
2023/04/10 11:16:42;;;;;;;11.30;7.20;;;14.90;99.90;;;;;;4959140;28;20046;-78
2023/04/10 11:19:11;;;;;;;11.40;7.53;;;14.90;99.90;;;;;;4958987;28;20050;-78
2023/04/10 11:22:02;;;;;;;12.75;7.80;;;14.90;99.90;;;;;;4959491;28;20058;-76
2023/04/10 11:24:28;;;;;;;11.30;7.40;;;14.90;99.90;;;;;;4943521;28;20134;-78
2023/04/10 11:26:55;;;;;;;10.52;7.40;;;14.90;99.90;;;;;;4976428;28;20046;-79
2023/04/10 11:29:26;;;;;;;10.00;6.95;;;15.00;99.90;;;;;;4958358;28;20039;-80
2023/04/10 11:31:57;;;;;;;10.50;7.10;;;15.00;99.90;;;;;;4942742;28;20530;-81
2023/04/10 11:34:23;;;;;;;9.88;7.25;;;15.20;99.90;;;;;;4975691;28;20039;-79
2023/04/10 11:36:48;;;;;;;9.77;7.18;;;15.30;99.90;;;;;;4959348;28;20035;-78
2023/04/10 11:39:17;;;;;;;10.32;6.82;;;15.50;99.90;;;;;;4959393;28;20549;-79
2023/04/10 11:41:48;;;;;;;9.82;6.53;;;15.60;99.90;;;;;;4975957;28;20085;-79
2023/04/10 11:44:16;;;;;;;9.52;6.88;;;15.80;99.90;;;;;;4958446;28;20046;-78
2023/04/10 11:46:46;;;;;;;10.55;7.30;;;15.90;99.90;;;;;;4958487;28;20057;-77
2023/04/10 11:49:17;;;;;;;10.93;7.15;;;15.90;99.90;;;;;;4958158;28;20053;-79
2023/04/10 11:51:46;;;;;;;10.88;6.68;;;16.00;99.90;;;;;;4958105;28;20086;-79
2023/04/10 11:54:15;;;;;;;9.63;6.65;;;16.10;99.90;;;;;;4957980;28;20047;-81
2023/04/10 11:56:42;;;;;;;8.52;6.18;;;16.30;99.90;;;;;;4958990;28;20498;-79
2023/04/10 11:59:09;;;;;;;12.18;7.10;;;16.40;99.90;;;;;;4958266;28;20077;-79
2023/04/10 12:01:39;;;;;;;9.20;6.22;;;16.50;99.90;;;;;;4958200;28;20043;-80
2023/04/10 12:04:15;;;;;;;10.00;6.60;;;16.50;99.90;;;;;;4958135;28;20244;-78
2023/04/10 12:06:52;;;;;;;9.32;6.72;;;16.60;99.90;;;;;;4975550;28;20047;-81
2023/04/10 12:09:19;;;;;;;12.93;7.55;;;16.70;99.90;;;;;;4957725;28;20395;-78
2023/04/10 12:11:50;;;;;;;12.27;7.13;;;16.70;99.90;;;;;;4957830;28;20053;-78
2023/04/10 12:14:16;;;;;;;10.07;6.80;;;16.50;99.90;;;;;;4957896;28;20046;-77
2023/04/10 12:16:43;;;;;;;12.73;7.03;;;16.50;99.90;;;;;;4975519;28;20042;-79
2023/04/10 12:19:10;;;;;;;11.88;6.72;;;16.30;99.90;;;;;;4958321;28;20051;-79
2023/04/10 12:21:37;;;;;;;9.95;6.80;;;16.20;99.90;;;;;;4957838;28;20051;-79
2023/04/10 12:24:04;;;;;;;10.13;6.63;;;16.10;99.90;;;;;;4975440;28;20039;-79
2023/04/10 12:26:30;;;;;;;10.73;6.53;;;16.00;99.90;;;;;;4957640;28;20047;-77
2023/04/10 12:28:56;;;;;;;9.80;6.63;;;15.90;99.90;;;;;;4957524;28;20053;-79
2023/04/10 12:31:33;;;;;;;12.98;6.15;;;15.80;99.90;;;;;;4974853;28;20077;-77
2023/04/10 12:34:00;;;;;;;11.60;6.75;;;15.80;99.90;;;;;;4974947;28;20122;-80
2023/04/10 12:36:28;;;;;;;11.45;6.80;;;15.70;99.90;;;;;;4957803;28;20097;-79
2023/04/10 12:38:59;;;;;;;13.60;5.43;;;15.60;99.90;;;;;;4957363;28;20110;-79
2023/04/10 12:41:28;;;;;;;8.98;5.95;;;15.60;99.90;;;;;;4941359;28;20362;-80
2023/04/10 12:44:12;;;;;;;9.55;6.15;;;15.50;99.90;;;;;;4957618;28;20062;-79
2023/04/10 12:46:39;;;;;;;15.95;6.53;;;15.50;99.90;;;;;;4957561;28;20101;-78
2023/04/10 12:49:15;;;;;;;9.90;5.85;;;15.50;99.90;;;;;;4975251;28;20051;-77
2023/04/10 12:51:42;;;;;;;12.82;5.85;;;15.50;99.90;;;;;;4957872;28;20451;-79
2023/04/10 12:54:08;;;;;;;9.32;6.68;;;15.60;99.90;;;;;;4974994;28;20046;-77
2023/04/10 12:56:42;;;;;;;10.00;5.90;;;15.80;99.90;;;;;;4975001;28;20077;-80
2023/04/10 12:59:07;;;;;;;8.73;5.70;;;15.90;99.90;;;;;;4957272;28;20055;-77
2023/04/10 13:01:33;;;;;;;10.45;6.18;;;15.90;99.90;;;;;;4957004;28;20046;-80
2023/04/10 13:03:58;;;;;;;10.57;6.10;;;15.90;99.90;;;;;;4974364;28;20451;-79
2023/04/10 13:06:24;;;;;;;9.77;6.18;;;15.90;99.90;;;;;;4974478;28;20096;-79
2023/04/10 13:08:51;;;;;;;14.82;6.93;;;15.80;99.90;;;;;;4957957;28;20097;-81
2023/04/10 13:11:17;;;;;;;10.52;6.15;;;15.60;99.90;;;;;;4957055;28;20141;-77
2023/04/10 13:13:42;;;;;;;10.50;6.72;;;15.60;99.90;;;;;;4956935;28;20495;-79
2023/04/10 13:16:11;;;;;;;9.68;6.93;;;15.50;99.90;;;;;;4957083;28;20035;-80
2023/04/10 13:18:37;;;;;;;10.43;6.80;;;15.50;99.90;;;;;;4957188;28;20099;-77
2023/04/10 13:21:03;;;;;;;10.57;6.82;;;15.30;99.90;;;;;;4956983;28;20047;-78
2023/04/10 13:23:29;;;;;;;11.23;6.88;;;15.30;99.90;;;;;;4957210;28;20129;-81
2023/04/10 13:25:55;;;;;;;8.00;5.95;;;15.40;99.90;;;;;;4957046;28;20154;-78
2023/04/10 13:28:21;;;;;;;9.27;6.15;;;15.40;99.90;;;;;;4956957;28;20491;-80
2023/04/10 13:30:47;;;;;;;9.65;6.70;;;15.40;99.90;;;;;;4974373;28;20387;-77
2023/04/10 13:33:13;;;;;;;9.45;6.10;;;15.40;99.90;;;;;;4941101;28;20049;-79
2023/04/10 13:35:41;;;;;;;11.93;6.93;;;15.30;99.90;;;;;;4956899;28;20035;-77
2023/04/10 13:38:08;;;;;;;12.20;5.90;;;15.30;99.90;;;;;;4956690;28;20050;-77
2023/04/10 13:40:33;;;;;;;9.32;5.95;;;15.20;99.90;;;;;;4974392;28;20051;-78
2023/04/10 13:42:59;;;;;;;12.38;6.05;;;15.20;99.90;;;;;;4956837;28;20047;-79
2023/04/10 13:45:25;;;;;;;10.30;6.00;;;15.20;99.90;;;;;;4974283;28;20042;-79
2023/04/10 13:47:51;;;;;;;11.98;6.05;;;15.20;99.90;;;;;;4974041;28;20034;-78
2023/04/10 13:50:16;;;;;;;9.48;5.53;;;15.20;99.90;;;;;;4956486;28;20191;-79
2023/04/10 13:52:42;;;;;;;12.15;6.07;;;15.20;99.90;;;;;;4957577;28;20034;-82
2023/04/10 13:55:08;;;;;;;10.35;6.18;;;15.10;99.90;;;;;;4960507;28;20112;-80
2023/04/10 13:57:34;;;;;;;7.72;5.30;;;15.10;99.90;;;;;;4960885;28;20082;-80
2023/04/10 14:00:00;;;;;;;10.18;6.18;;;15.10;99.90;;;;;;4944473;28;20078;-77
2023/04/10 14:02:25;;;;;;;10.43;6.13;;;15.10;99.90;;;;;;4944272;28;20046;-77
2023/04/10 14:04:51;;;;;;;12.07;6.10;;;15.10;99.90;;;;;;4977973;28;20090;-78
2023/04/10 14:07:18;;;;;;;8.32;5.47;;;15.10;99.90;;;;;;4960800;28;20426;-77
2023/04/10 14:09:45;;;;;;;7.72;5.50;;;15.00;99.90;;;;;;4960298;28;20447;-82
2023/04/10 14:12:11;;;;;;;39.00;7.03;;;15.10;99.90;;;;;;4960556;28;20085;-78
2023/04/10 14:14:36;;;;;;;8.70;5.45;;;15.00;99.90;;;;;;4977573;28;20046;-78
2023/04/10 14:17:02;;;;;;;10.57;5.93;;;14.90;99.90;;;;;;4960702;28;20039;-80
2023/04/10 14:19:27;;;;;;;7.78;5.55;;;15.00;99.90;;;;;;4960926;28;20406;-80
2023/04/10 14:21:53;;;;;;;9.77;5.63;;;14.90;99.90;;;;;;4944811;28;20477;-79
2023/04/10 14:24:20;;;;;;;9.07;6.10;;;14.90;99.90;;;;;;4960219;28;20051;-79
2023/04/10 14:26:45;;;;;;;9.10;5.57;;;14.90;99.90;;;;;;4977256;28;20043;-77
2023/04/10 14:29:11;;;;;;;11.27;5.82;;;14.90;99.90;;;;;;4944220;28;20177;-79
2023/04/10 14:31:37;;;;;;;8.90;6.00;;;14.90;99.90;;;;;;4944201;28;20038;-80
2023/04/10 14:34:02;;;;;;;9.65;6.10;;;14.80;99.90;;;;;;4960483;28;20125;-78
2023/04/10 14:36:28;;;;;;;10.00;5.95;;;14.80;99.90;;;;;;4960468;28;20043;-80
2023/04/10 14:38:53;;;;;;;8.52;5.97;;;14.80;99.90;;;;;;4977721;28;20121;-78
2023/04/10 14:41:19;;;;;;;8.82;6.38;;;14.70;99.90;;;;;;4977395;28;20521;-79
2023/04/10 14:43:45;;;;;;;9.10;5.90;;;14.60;99.90;;;;;;4959593;28;20057;-80
2023/04/10 14:46:10;;;;;;;9.77;6.22;;;14.60;99.90;;;;;;4960155;28;20108;-78
2023/04/10 14:48:36;;;;;;;10.07;6.20;;;14.50;99.90;;;;;;4959473;28;20047;-80
2023/04/10 14:51:03;;;;;;;9.15;6.47;;;14.40;99.90;;;;;;4959356;28;20049;-77
2023/04/10 14:53:28;;;;;;;8.95;6.80;;;14.30;99.90;;;;;;4959687;28;20118;-78
2023/04/10 14:55:54;;;;;;;10.25;7.00;;;14.30;99.90;;;;;;4978341;28;20074;-79
2023/04/10 14:58:19;;;;;;;11.95;6.50;;;14.20;99.90;;;;;;4977683;28;20566;-80
2023/04/10 15:00:46;;;;;;;9.15;6.25;;;14.10;99.90;;;;;;4959140;28;20394;-78
2023/04/10 15:03:11;;;;;;;14.05;6.80;;;14.00;99.90;;;;;;4959673;28;20110;-78
2023/04/10 15:05:37;;;;;;;8.25;5.88;;;13.90;99.90;;;;;;4975708;28;20376;-77
2023/04/10 15:08:02;;;;;;;10.80;6.68;;;13.80;99.90;;;;;;4958859;28;20054;-79
2023/04/10 15:10:31;;;;;;;12.25;6.95;;;13.70;99.90;;;;;;4959256;28;20038;-78
2023/04/10 15:12:57;;;;;;;8.80;6.30;;;13.60;99.90;;;;;;4958829;28;20115;-80
2023/04/10 15:15:23;;;;;;;12.15;7.40;;;13.50;99.90;;;;;;4959586;28;20082;-79
2023/04/10 15:17:48;;;;;;;11.52;6.65;;;13.50;99.90;;;;;;4976434;28;20046;-76
2023/04/10 15:20:14;;;;;;;10.05;6.60;;;13.50;99.90;;;;;;4959440;28;20101;-76
2023/04/10 15:22:41;;;;;;;11.70;7.03;;;13.40;99.90;;;;;;4976011;28;20125;-77
2023/04/10 15:25:10;;;;;;;9.15;6.63;;;13.40;99.90;;;;;;4976433;28;20078;-78
2023/04/10 15:27:37;;;;;;;10.48;7.40;;;13.40;99.90;;;;;;4958710;28;20039;-78
2023/04/10 15:30:04;;;;;;;10.48;7.20;;;13.40;99.90;;;;;;4959054;28;20057;-79
2023/04/10 15:32:29;;;;;;;10.02;6.65;;;13.40;99.90;;;;;;4975966;28;20487;-80
2023/04/10 15:34:55;;;;;;;9.30;6.75;;;13.30;99.90;;;;;;4958700;28;20105;-78
2023/04/10 15:37:22;;;;;;;10.68;7.90;;;13.30;99.90;;;;;;4958704;28;20463;-78
2023/04/10 15:39:48;;;;;;;11.13;7.47;;;13.20;99.90;;;;;;4943327;28;20134;-80